createdAt,value
2023-02-18T00:00:24.298Z,11.60
2023-02-18T00:03:22.113Z,11.60
2023-02-18T00:06:19.974Z,11.50
2023-02-18T00:09:28.637Z,11.40
2023-02-18T00:12:26.343Z,11.30
2023-02-18T00:15:20.598Z,11.30
2023-02-18T00:18:08.381Z,11.30
2023-02-18T00:20:58.873Z,11.20
2023-02-18T00:23:54.104Z,11.30
2023-02-18T00:26:43.039Z,11.20
2023-02-18T00:29:34.722Z,11.10
2023-02-18T00:32:22.584Z,11.10
2023-02-18T00:35:15.992Z,11.20
2023-02-18T00:38:03.784Z,11.20
2023-02-18T00:40:53.839Z,11.10
2023-02-18T00:43:48.264Z,11.10
2023-02-18T00:46:42.624Z,11.10
2023-02-18T00:49:35.666Z,11.10
2023-02-18T00:55:36.199Z,11.20
2023-02-18T00:58:36.778Z,11.20
2023-02-18T01:01:34.202Z,11.20
2023-02-18T01:04:32.114Z,11.20
2023-02-18T01:07:29.614Z,11.10
2023-02-18T01:10:22.462Z,11.00
2023-02-18T01:13:23.535Z,10.90
2023-02-18T01:16:53.184Z,10.80
2023-02-18T01:19:53.171Z,10.80
2023-02-18T01:22:43.736Z,10.80
2023-02-18T01:25:47.451Z,10.80
2023-02-18T01:35:41.073Z,10.90
2023-02-18T01:38:50.409Z,10.90
2023-02-18T01:42:31.370Z,11.00
2023-02-18T01:46:14.500Z,11.00
2023-02-18T01:51:37.314Z,10.90
2023-02-18T01:53:51.158Z,10.90
2023-02-18T01:56:53.259Z,11.00
2023-02-18T02:00:37.908Z,10.90
2023-02-18T02:07:06.679Z,11.00
2023-02-18T02:10:19.105Z,11.00
2023-02-18T02:14:08.810Z,11.00
2023-02-18T02:22:27.208Z,11.00
2023-02-18T02:25:56.759Z,11.00
2023-02-18T02:41:49.461Z,10.70
2023-02-18T02:53:00.809Z,10.70
2023-02-18T03:04:48.914Z,10.70
2023-02-18T03:14:27.758Z,10.80
2023-02-18T03:17:21.223Z,10.70
2023-02-18T03:20:16.233Z,10.70
2023-02-18T03:23:08.224Z,10.70
2023-02-18T03:25:58.594Z,10.70
2023-02-18T03:28:49.094Z,10.80
2023-02-18T03:31:40.578Z,10.80
2023-02-18T03:34:35.782Z,10.80
2023-02-18T03:37:24.460Z,10.80
2023-02-18T03:40:13.091Z,10.70
2023-02-18T03:43:03.784Z,10.70
2023-02-18T03:45:54.818Z,10.70
2023-02-18T03:48:42.929Z,10.80
2023-02-18T03:51:31.191Z,10.80
2023-02-18T03:54:19.094Z,10.70
2023-02-18T03:57:09.248Z,10.70
2023-02-18T03:59:56.985Z,10.70
2023-02-18T04:02:45.214Z,10.70
2023-02-18T04:05:36.649Z,10.70
2023-02-18T04:08:24.903Z,10.70
2023-02-18T04:11:13.038Z,10.70
2023-02-18T04:14:00.649Z,10.70
2023-02-18T04:16:48.870Z,10.70
2023-02-18T04:19:37.308Z,10.70
2023-02-18T04:22:28.151Z,10.70
2023-02-18T04:25:16.323Z,10.70
2023-02-18T04:28:04.970Z,10.70
2023-02-18T04:30:53.410Z,10.70
2023-02-18T04:33:41.546Z,10.70
2023-02-18T04:36:29.605Z,10.70
2023-02-18T04:39:20.720Z,10.70
2023-02-18T04:42:11.272Z,10.70
2023-02-18T04:44:59.279Z,10.80
2023-02-18T04:47:47.220Z,10.80
2023-02-18T04:50:35.165Z,10.60
2023-02-18T04:53:23.433Z,10.60
2023-02-18T04:56:11.762Z,10.60
2023-02-18T04:58:59.731Z,10.60
2023-02-18T05:01:47.862Z,10.60
2023-02-18T05:04:36.112Z,10.60
2023-02-18T05:07:24.150Z,10.70
2023-02-18T05:10:18.843Z,10.60
2023-02-18T05:13:07.104Z,10.60
2023-02-18T05:15:54.903Z,10.50
2023-02-18T05:18:42.788Z,10.40
2023-02-18T05:21:30.706Z,10.40
2023-02-18T05:24:18.590Z,10.30
2023-02-18T05:27:06.513Z,10.20
2023-02-18T05:29:54.307Z,10.20
2023-02-18T05:32:42.007Z,10.20
2023-02-18T05:35:29.772Z,10.10
2023-02-18T05:38:17.707Z,10.10
2023-02-18T05:41:05.957Z,10.10
2023-02-18T05:44:12.600Z,10.10
2023-02-18T05:47:07.414Z,10.10
2023-02-18T05:49:56.233Z,10.10
2023-02-18T05:52:44.164Z,10.20
2023-02-18T05:55:32.090Z,10.30
2023-02-18T05:58:32.353Z,10.40
2023-02-18T06:01:38.775Z,10.50
2023-02-18T06:04:27.199Z,10.50
2023-02-18T06:07:15.068Z,10.60
2023-02-18T06:10:03.638Z,10.60
2023-02-18T06:12:51.521Z,10.60
2023-02-18T06:15:40.353Z,10.60
2023-02-18T06:18:27.977Z,10.60
2023-02-18T06:21:15.648Z,10.60
2023-02-18T06:24:03.464Z,10.60
2023-02-18T06:26:51.261Z,10.60
2023-02-18T06:29:38.940Z,10.60
2023-02-18T06:32:26.736Z,10.60
2023-02-18T06:35:14.285Z,10.60
2023-02-18T06:38:01.936Z,10.60
2023-02-18T06:40:49.767Z,10.60
2023-02-18T06:43:37.725Z,10.60
2023-02-18T06:46:25.418Z,10.70
2023-02-18T06:49:13.587Z,10.70
2023-02-18T06:52:04.664Z,10.70
2023-02-18T06:54:52.578Z,10.70
2023-02-18T06:57:44.574Z,10.60
2023-02-18T07:00:35.854Z,10.70
2023-02-18T07:03:23.680Z,10.70
2023-02-18T07:06:24.886Z,10.70
2023-02-18T07:09:22.096Z,10.60
2023-02-18T07:12:12.276Z,10.70
2023-02-18T07:15:28.249Z,10.70
2023-02-18T07:18:42.879Z,10.70
2023-02-18T07:21:30.983Z,10.80
2023-02-18T07:24:21.476Z,10.70
2023-02-18T07:27:15.348Z,10.70
2023-02-18T07:32:15.756Z,10.70
2023-02-18T07:33:51.028Z,10.60
2023-02-18T07:36:42.558Z,10.60
2023-02-18T07:39:30.723Z,10.60
2023-02-18T07:42:18.839Z,10.60
2023-02-18T07:45:07.262Z,10.60
2023-02-18T07:47:55.078Z,10.60
2023-02-18T07:50:45.370Z,10.60
2023-02-18T07:53:33.140Z,10.70
2023-02-18T07:56:21.041Z,10.70
2023-02-18T07:59:09.212Z,10.70
2023-02-18T08:01:57.160Z,10.70
2023-02-18T08:04:45.206Z,10.70
2023-02-18T08:07:41.208Z,10.60
2023-02-18T08:10:34.626Z,10.60
2023-02-18T08:13:31.227Z,10.60
2023-02-18T08:16:20.926Z,10.60
2023-02-18T08:19:09.047Z,10.60
2023-02-18T08:21:57.008Z,10.60
2023-02-18T08:24:44.865Z,10.70
2023-02-18T08:27:32.741Z,10.80
2023-02-18T08:30:21.137Z,10.90
2023-02-18T08:33:08.677Z,11.00
2023-02-18T08:35:57.780Z,11.00
2023-02-18T08:38:45.756Z,11.20
2023-02-18T08:41:33.543Z,11.20
2023-02-18T08:44:21.406Z,11.00
2023-02-18T08:48:16.946Z,11.10
2023-02-18T08:50:17.052Z,11.10
2023-02-18T08:53:05.753Z,11.00
2023-02-18T08:55:53.666Z,11.00
2023-02-18T08:58:41.917Z,11.00
2023-02-18T09:01:29.533Z,11.00
2023-02-18T09:04:17.836Z,10.90
2023-02-18T09:07:06.000Z,11.00
2023-02-18T09:09:53.854Z,11.00
2023-02-18T09:12:41.608Z,11.00
2023-02-18T09:15:32.747Z,11.10
2023-02-18T09:18:20.567Z,11.00
2023-02-18T09:21:13.271Z,11.00
2023-02-18T09:24:05.342Z,11.10
2023-02-18T09:26:55.529Z,11.10
2023-02-18T09:29:43.616Z,11.10
2023-02-18T09:32:38.828Z,11.10
2023-02-18T09:35:30.419Z,11.00
2023-02-18T09:38:19.085Z,11.00
2023-02-18T09:41:14.311Z,11.10
2023-02-18T09:44:34.400Z,11.00
2023-02-18T09:47:40.979Z,11.00
2023-02-18T09:50:34.623Z,11.00
2023-02-18T09:53:24.237Z,11.00
2023-02-18T09:56:40.696Z,11.00
2023-02-18T09:59:30.928Z,11.00
2023-02-18T10:02:20.629Z,11.00
2023-02-18T10:05:15.169Z,11.10
2023-02-18T10:08:17.735Z,11.10
2023-02-18T10:11:17.357Z,11.10
2023-02-18T10:14:14.626Z,11.00
2023-02-18T10:17:07.530Z,11.10
2023-02-18T10:19:57.165Z,11.10
2023-02-18T10:22:45.127Z,11.20
2023-02-18T10:25:37.135Z,11.10
2023-02-18T10:28:26.715Z,11.20
2023-02-18T10:31:37.231Z,11.20
2023-02-18T10:34:41.823Z,11.30
2023-02-18T10:37:36.620Z,11.30
2023-02-18T10:40:36.022Z,11.30
2023-02-18T10:43:49.260Z,11.40
2023-02-18T10:46:42.963Z,11.30
2023-02-18T10:49:55.531Z,11.20
2023-02-18T10:52:46.175Z,11.20
2023-02-18T10:55:43.078Z,11.30
2023-02-18T10:58:35.378Z,11.20
2023-02-18T11:01:24.253Z,11.20
2023-02-18T11:04:21.349Z,11.30
2023-02-18T11:07:20.021Z,11.20
2023-02-18T11:10:31.147Z,11.20
2023-02-18T11:13:32.290Z,11.20
2023-02-18T11:16:27.941Z,11.20
2023-02-18T11:19:44.002Z,11.20
2023-02-18T11:22:35.405Z,11.20
2023-02-18T11:25:33.851Z,11.20
2023-02-18T11:28:24.125Z,11.20
2023-02-18T11:31:26.943Z,11.20
2023-02-18T11:34:24.718Z,11.20
2023-02-18T11:37:21.092Z,11.20
2023-02-18T11:40:28.576Z,11.20
2023-02-18T11:43:20.733Z,11.20
2023-02-18T11:46:12.234Z,11.20
2023-02-18T11:49:25.145Z,11.10
2023-02-18T11:52:26.468Z,11.00
2023-02-18T11:55:27.793Z,11.00
2023-02-18T11:58:18.953Z,11.10
2023-02-18T12:01:14.925Z,11.00
2023-02-18T12:04:14.817Z,11.00
2023-02-18T12:07:06.051Z,11.00
2023-02-18T12:09:58.726Z,11.10
2023-02-18T12:12:53.925Z,11.20
2023-02-18T12:15:54.161Z,11.20
2023-02-18T12:19:00.091Z,11.40
2023-02-18T12:21:56.815Z,11.40
2023-02-18T12:24:59.707Z,11.30
2023-02-18T12:28:09.948Z,11.40
2023-02-18T12:31:21.929Z,11.60
2023-02-18T12:34:25.392Z,11.60
2023-02-18T12:37:34.941Z,11.60
2023-02-18T12:40:55.581Z,11.60
2023-02-18T12:44:14.068Z,11.70
2023-02-18T12:47:39.583Z,11.80
2023-02-18T12:50:33.668Z,11.80
2023-02-18T12:53:50.382Z,11.90
2023-02-18T12:56:53.145Z,11.70
2023-02-18T13:00:12.135Z,11.60
2023-02-18T13:03:31.818Z,11.30
2023-02-18T13:07:07.430Z,11.10
2023-02-18T13:09:55.467Z,10.70
2023-02-18T13:13:11.671Z,10.70
2023-02-18T13:16:10.890Z,10.60
2023-02-18T13:19:01.984Z,10.60
2023-02-18T13:21:52.815Z,10.60
2023-02-18T13:24:48.197Z,10.80
2023-02-18T13:28:02.274Z,11.00
2023-02-18T13:31:16.843Z,11.10
2023-02-18T13:34:20.856Z,11.20
2023-02-18T13:37:18.640Z,11.30
2023-02-18T13:40:25.584Z,11.40
2023-02-18T13:43:29.139Z,11.60
2023-02-18T13:46:20.274Z,11.40
2023-02-18T13:49:13.712Z,11.20
2023-02-18T13:52:03.617Z,11.00
2023-02-18T13:54:56.308Z,11.10
2023-02-18T13:57:49.090Z,11.00
2023-02-18T14:00:49.228Z,11.00
2023-02-18T14:03:42.967Z,10.60
2023-02-18T14:06:39.840Z,10.50
2023-02-18T14:09:45.175Z,10.50
2023-02-18T14:12:47.031Z,10.40
2023-02-18T14:15:34.755Z,10.50
2023-02-18T14:18:35.366Z,10.50
2023-02-18T14:21:43.538Z,10.50
2023-02-18T14:24:56.860Z,10.60
2023-02-18T14:27:45.345Z,10.60
2023-02-18T14:30:40.119Z,10.60
2023-02-18T14:33:32.703Z,10.60
2023-02-18T14:36:35.408Z,10.70
2023-02-18T14:39:43.614Z,10.70
2023-02-18T14:42:52.860Z,10.70
2023-02-18T14:46:19.245Z,10.80
2023-02-18T14:49:38.180Z,10.70
2023-02-18T14:52:49.844Z,10.80
2023-02-18T14:55:45.349Z,10.80
2023-02-18T14:58:38.096Z,10.90
2023-02-18T15:01:30.212Z,10.80
2023-02-18T15:04:18.861Z,10.90
2023-02-18T15:07:12.459Z,11.00
2023-02-18T15:10:02.651Z,10.90
2023-02-18T15:12:51.155Z,10.90
2023-02-18T15:15:39.025Z,10.80
2023-02-18T15:18:40.624Z,10.80
2023-02-18T15:21:31.805Z,10.90
2023-02-18T15:24:44.209Z,10.90
2023-02-18T15:27:35.464Z,10.90
2023-02-18T15:30:31.461Z,10.90
2023-02-18T15:33:21.669Z,10.90
2023-02-18T15:36:14.473Z,10.90
2023-02-18T15:39:04.093Z,11.00
2023-02-18T15:42:08.236Z,10.90
2023-02-18T15:45:02.354Z,10.80
2023-02-18T15:47:54.384Z,10.80
2023-02-18T15:50:51.282Z,10.90
2023-02-18T15:53:41.893Z,11.00
2023-02-18T15:56:37.100Z,11.00
2023-02-18T15:59:32.689Z,11.10
2023-02-18T16:02:25.243Z,11.00
2023-02-18T16:05:14.604Z,11.00
2023-02-18T16:08:07.320Z,11.10
2023-02-18T16:11:10.336Z,11.10
2023-02-18T16:13:58.497Z,11.10
2023-02-18T16:17:15.617Z,11.20
2023-02-18T16:20:38.722Z,11.10
2023-02-18T16:23:31.462Z,11.10
2023-02-18T16:26:44.674Z,11.10
2023-02-18T16:29:43.239Z,11.00
2023-02-18T16:32:31.792Z,11.10
2023-02-18T16:35:20.385Z,11.00
2023-02-18T16:38:11.339Z,11.00
2023-02-18T16:40:59.355Z,10.90
2023-02-18T16:43:47.352Z,10.90
2023-02-18T16:46:35.538Z,10.80
2023-02-18T16:49:23.507Z,10.90
2023-02-18T16:52:15.479Z,10.80
2023-02-18T16:55:15.781Z,10.80
2023-02-18T16:58:03.858Z,10.80
2023-02-18T17:00:53.349Z,10.80
2023-02-18T17:03:41.461Z,10.80
2023-02-18T17:06:29.887Z,10.80
2023-02-18T17:09:39.307Z,10.80
2023-02-18T17:12:46.546Z,10.80
2023-02-18T17:16:20.814Z,10.80
2023-02-18T17:25:46.742Z,10.70
2023-02-18T17:28:51.756Z,10.70
2023-02-18T17:31:54.905Z,10.70
2023-02-18T17:34:49.962Z,10.60
2023-02-18T17:41:26.232Z,10.70
2023-02-18T17:44:24.925Z,10.60
2023-02-18T17:50:39.327Z,10.60
2023-02-18T17:53:31.462Z,10.60
2023-02-18T17:56:23.152Z,10.60
2023-02-18T17:59:24.269Z,10.60
2023-02-18T18:02:34.333Z,10.60
2023-02-18T18:05:24.686Z,10.60
2023-02-18T18:08:40.473Z,10.60
2023-02-18T18:14:47.515Z,10.50
2023-02-18T18:17:38.733Z,10.60
2023-02-18T18:23:42.737Z,10.50
2023-02-18T18:26:39.372Z,10.50
2023-02-18T18:29:27.129Z,10.50
2023-02-18T18:32:14.794Z,10.40
2023-02-18T18:35:13.463Z,10.50
2023-02-18T18:38:02.068Z,10.50
2023-02-18T18:40:50.154Z,10.40
2023-02-18T18:43:40.040Z,10.40
2023-02-18T18:46:35.432Z,10.40
2023-02-18T18:49:23.683Z,10.40
2023-02-18T18:52:17.118Z,10.40
2023-02-18T18:55:17.069Z,10.40
2023-02-18T18:58:13.501Z,10.40
2023-02-18T19:01:03.873Z,10.40
2023-02-18T19:03:51.702Z,10.40
2023-02-18T19:06:42.561Z,10.40
2023-02-18T19:09:35.092Z,10.30
2023-02-18T19:12:24.248Z,10.30
2023-02-18T19:15:33.114Z,10.30
2023-02-18T19:18:33.991Z,10.30
2023-02-18T19:21:22.969Z,10.30
2023-02-18T19:24:24.327Z,10.30
2023-02-18T19:27:16.173Z,10.20
2023-02-18T19:30:05.180Z,10.20
2023-02-18T19:32:57.009Z,10.20
2023-02-18T19:35:45.215Z,10.10
2023-02-18T19:38:38.365Z,10.20
2023-02-18T19:41:26.307Z,10.10
2023-02-18T19:44:13.983Z,10.10
2023-02-18T19:47:01.979Z,10.10
2023-02-18T19:49:53.465Z,10.10
2023-02-18T19:52:41.299Z,10.00
2023-02-18T19:55:32.104Z,10.00
2023-02-18T19:58:24.893Z,9.90
2023-02-18T20:01:17.476Z,9.90
2023-02-18T20:04:05.664Z,9.90
2023-02-18T20:06:53.812Z,9.90
2023-02-18T20:09:44.212Z,9.90
2023-02-18T20:12:35.268Z,10.00
2023-02-18T20:15:23.532Z,10.00
2023-02-18T20:18:17.898Z,10.00
2023-02-18T20:21:07.637Z,9.90
2023-02-18T20:24:03.996Z,9.90
2023-02-18T20:26:59.082Z,9.90
2023-02-18T20:29:48.228Z,9.80
2023-02-18T20:32:42.426Z,9.80
2023-02-18T20:35:30.214Z,9.80
2023-02-18T20:38:25.129Z,9.80
2023-02-18T20:41:16.767Z,9.70
2023-02-18T20:44:07.396Z,9.60
2023-02-18T20:46:55.467Z,9.50
2023-02-18T20:49:43.763Z,9.50
2023-02-18T20:52:34.856Z,9.50
2023-02-18T20:55:26.662Z,9.60
2023-02-18T20:58:18.629Z,9.60
2023-02-18T21:01:12.562Z,9.70
2023-02-18T21:04:01.276Z,9.80
2023-02-18T21:06:51.894Z,9.80
2023-02-18T21:09:39.879Z,9.90
2023-02-18T21:12:40.207Z,9.90
2023-02-18T21:15:37.470Z,9.90
2023-02-18T21:18:32.811Z,10.00
2023-02-18T21:21:26.005Z,10.00
2023-02-18T21:24:14.671Z,10.00
2023-02-18T21:27:02.400Z,10.00
2023-02-18T21:29:52.875Z,10.00
2023-02-18T21:32:41.107Z,10.00
2023-02-18T21:35:29.250Z,10.00
2023-02-18T21:38:19.496Z,10.10
2023-02-18T21:41:11.673Z,10.10
2023-02-18T21:44:14.457Z,10.10
2023-02-18T21:47:03.043Z,10.00
2023-02-18T21:49:50.704Z,10.00
2023-02-18T21:52:39.552Z,10.10
2023-02-18T21:55:27.155Z,10.10
2023-02-18T21:58:15.080Z,10.00
2023-02-18T22:01:08.649Z,10.00
2023-02-18T22:03:56.526Z,10.00
2023-02-18T22:06:44.529Z,10.00
2023-02-18T22:09:36.225Z,10.00
2023-02-18T22:12:27.504Z,10.00
2023-02-18T22:15:15.419Z,10.00
2023-02-18T22:18:06.024Z,9.90
2023-02-18T22:20:53.560Z,9.90
2023-02-18T22:23:41.153Z,10.00
2023-02-18T22:26:28.698Z,9.90
2023-02-18T22:29:20.207Z,9.90
2023-02-18T22:32:08.014Z,9.80
2023-02-18T22:34:58.824Z,9.80
2023-02-18T22:37:49.889Z,9.80
2023-02-18T22:40:37.472Z,9.90
2023-02-18T22:43:25.331Z,9.90
2023-02-18T22:46:16.407Z,9.90
2023-02-18T22:49:09.538Z,9.90
2023-02-18T22:51:57.193Z,9.90
2023-02-18T22:54:44.933Z,9.90
2023-02-18T22:57:32.696Z,9.90
2023-02-18T23:00:25.110Z,9.90
2023-02-18T23:03:12.886Z,9.90
2023-02-18T23:06:05.567Z,9.90
2023-02-18T23:08:55.059Z,9.90
2023-02-18T23:11:43.084Z,9.90
2023-02-18T23:14:33.509Z,9.90
2023-02-18T23:17:21.145Z,9.90
2023-02-18T23:20:10.787Z,9.80
2023-02-18T23:22:59.504Z,9.90
2023-02-18T23:25:50.058Z,9.90
2023-02-18T23:28:49.541Z,9.90
2023-02-18T23:31:42.266Z,9.90
2023-02-18T23:34:35.186Z,9.80
2023-02-18T23:37:44.221Z,9.90
2023-02-18T23:40:32.960Z,9.80
2023-02-18T23:43:23.692Z,9.80
2023-02-18T23:46:12.128Z,9.70
2023-02-18T23:49:06.392Z,9.70
2023-02-18T23:52:01.635Z,9.70
2023-02-18T23:54:52.432Z,9.80
2023-02-18T23:57:40.078Z,9.70
